CST,Max TemperatureF,Mean TemperatureF,Min TemperatureF,Max Dew PointF,MeanDew PointF,Min DewpointF,Max Humidity, Mean Humidity, Min Humidity, Max Sea Level PressureIn, Mean Sea Level PressureIn, Min Sea Level PressureIn, Max VisibilityMiles, Mean VisibilityMiles, Min VisibilityMiles, Max Wind SpeedMPH, Mean Wind SpeedMPH, Max Gust SpeedMPH,PrecipitationIn, CloudCover, Events, WindDirDegrees
2011-11-1,73,64,54,53,51,47,83,66,48,29.97,29.90,29.84,10,10,10,29,21,37,0.00,0,,178
2011-11-2,60,48,36,54,42,28,84,72,55,30.39,30.04,29.80,10,10,10,37,23,48,0.00,4,,289
2011-11-3,53,42,30,29,22,15,76,51,23,30.47,30.39,30.29,10,10,5,18,13,28,0.00,0,,333
2011-11-4,57,42,30,26,24,21,72,49,29,30.27,30.17,30.01,10,10,10,20,10,25,0.00,0,,163
2011-11-5,64,54,44,45,31,24,69,44,25,29.99,29.82,29.69,10,10,10,34,22,44,0.00,0,,166
2011-11-6,71,57,43,47,34,23,86,51,16,29.98,29.89,29.75,10,10,10,22,13,30,0.00,0,,202
2011-11-7,70,59,48,64,51,37,100,93,57,30.00,29.90,29.78,10,6,0,70,12,88,1.18,7,Fog-Rain-Thunderstorm,20
2011-11-8,48,44,39,46,43,34,100,91,77,30.24,29.96,29.85,10,7,2,46,21,68,0.09,7,Rain,304
2011-11-9,55,46,37,38,33,29,86,66,41,30.47,30.40,30.25,10,10,10,17,13,22,0.00,0,,328
2011-11-10,62,50,37,36,33,29,73,56,32,30.47,30.32,30.14,10,10,10,17,11,,0.00,0,,224
2011-11-11,63,50,37,42,34,28,73,54,38,30.11,29.95,29.82,10,10,10,17,14,,0.00,0,,195
2011-11-12,71,60,48,42,36,31,58,45,33,29.79,29.68,29.62,10,10,10,29,21,33,0.00,0,,193
2011-11-13,78,66,53,42,36,32,48,36,21,29.66,29.63,29.57,10,10,10,30,18,39,0.00,0,,216
2011-11-14,64,56,48,45,40,34,77,52,41,29.84,29.75,29.64,10,10,10,20,13,,0.00,2,,142
2011-11-15,66,56,45,43,36,26,86,56,24,29.91,29.79,29.71,10,10,10,23,9,29,0.00,0,,348
2011-11-16,46,38,30,30,24,14,85,56,27,30.48,30.18,29.92,10,10,10,29,15,36,0.00,1,,17
2011-11-17,48,37,26,28,26,24,92,64,38,30.49,30.34,30.09,10,10,10,29,11,37,0.00,0,,204
2011-11-18,62,50,39,50,39,28,83,67,52,30.08,29.88,29.71,10,10,10,39,25,44,0.00,0,,179
2011-11-19,71,57,37,52,46,30,93,70,42,29.99,29.77,29.67,10,9,5,28,21,33,0.00,0,,189
2011-11-20,42,36,30,29,27,26,82,73,60,30.23,30.16,29.99,10,10,8,23,16,26,0.00,4,,11
2011-11-21,37,34,32,37,33,27,100,90,79,30.23,30.08,29.89,10,6,1,18,9,37,0.60,8,Rain-Thunderstorm,24
2011-11-22,55,46,37,45,40,37,100,92,62,30.24,30.11,30.03,10,5,0,17,10,,0.00,5,Fog-Rain,316
2011-11-23,64,54,43,46,41,35,77,64,43,30.30,30.24,30.20,10,10,10,15,9,,0.00,0,,211
2011-11-24,63,52,41,51,46,39,93,81,60,30.20,30.11,29.99,10,10,4,25,13,32,0.00,0,,173
2011-11-25,57,52,48,55,51,46,100,92,83,29.97,29.86,29.75,10,6,2,31,22,38,0.13,7,Rain,172
2011-11-26,55,47,37,55,41,22,100,76,45,30.38,29.99,29.72,10,8,4,41,19,52,0.01,6,Rain,323
2011-11-27,46,39,32,24,18,13,61,47,25,30.43,30.35,30.25,10,10,10,21,15,28,0.00,0,,331
2011-11-28,53,42,30,33,24,17,70,54,32,30.23,30.13,30.05,10,10,10,10,7,,0.00,0,,203
2011-11-29,53,44,35,33,29,25,76,62,35,30.35,30.30,30.18,10,10,10,23,12,32,0.00,0,,353
2011-11-30,53,42,30,30,28,25,82,59,37,30.29,30.09,29.91,10,10,10,24,12,32,0.00,0,,183